Date,TemperatureHighF,TemperatureAvgF,TemperatureLowF,DewpointHighF,DewpointAvgF,DewpointLowF,HumidityHigh,HumidityAvg,HumidityLow,PressureMaxIn,PressureMinIn,WindSpeedMaxMPH,WindSpeedAvgMPH,GustSpeedMaxMPH,PrecipitationSumIn
2014-1-1,14,10,4,6,3,1,90,74,62,30.47,30.34,9,3,13,0.00
2014-1-2,12,8,-3,6,2,-6,86,74,61,30.42,30.27,10,4,20,0.00
2014-1-3,15,6,-6,6,-1,-9,87,74,60,30.48,30.02,11,4,21,0.00
2014-1-4,30,25,15,29,21,6,95,82,66,30.02,29.83,12,4,18,0.00
2014-1-5,30,22,15,29,19,12,95,89,84,30.10,29.82,8,2,15,0.00
2014-1-6,15,3,-6,12,-1,-10,87,84,79,30.11,29.82,6,2,16,0.00
2014-1-7,9,3,-6,6,-1,-10,88,85,82,30.32,30.09,6,1,10,0.00
2014-1-8,15,11,6,11,7,3,89,86,80,30.56,30.31,4,0,7,0.00
2014-1-9,20,12,7,17,8,4,89,84,78,30.60,30.27,6,1,9,0.00
2014-1-10,42,30,20,41,28,17,97,93,89,30.27,29.56,5,1,9,1.03
2014-1-11,42,38,32,40,36,29,97,94,87,29.56,29.35,6,2,12,0.35
2014-1-13,42,38,29,37,33,25,85,82,78,29.70,29.50,6,1,15,0.00
2014-1-14,33,27,20,31,25,18,94,89,71,29.74,29.59,13,2,22,0.00
2014-1-15,28,22,20,26,17,13,92,81,70,30.01,29.59,7,2,15,0.00
2014-1-16,29,23,17,27,19,13,93,86,78,29.88,29.56,12,5,20,0.00
2014-1-17,30,22,20,28,18,15,93,85,80,29.91,29.57,4,2,11,0.00
2014-1-18,24,20,12,21,15,-100,90,84,78,29.90,29.85,5,-11,7,0.00
2014-1-19,31,26,15,26,22,13,92,86,81,29.83,29.52,7,2,12,0.00
2014-1-20,30,20,8,27,14,0,88,76,69,30.17,29.53,9,2,9,0.00
2014-1-21,11,7,-3,4,-3,-100,87,69,59,30.31,30.17,4,-31,7,0.01
2014-1-22,12,9,6,8,5,1,88,83,75,30.22,29.89,10,2,15,0.00
2014-1-23,16,8,-2,7,3,-6,89,80,57,30.52,30.02,6,1,12,0.03
2014-1-24,26,14,7,24,10,3,94,84,76,30.47,29.40,11,5,14,0.00
2014-1-25,28,15,2,27,9,-100,95,84,72,29.80,29.31,8,-24,10,0.00
2014-1-26,20,10,-3,17,5,-100,91,85,76,29.80,29.38,6,-13,11,0.00
2014-1-27,12,3,-10,8,-2,-13,87,81,70,30.34,29.56,6,2,15,0.00
2014-1-28,8,-1,-14,4,-6,-100,89,82,74,30.36,30.16,6,-13,9,0.00
2014-1-29,18,12,7,10,5,-100,86,75,66,30.16,30.06,8,-12,13,0.00
2014-1-30,31,23,14,29,15,6,94,73,53,30.06,29.68,12,5,17,0.00
2014-1-31,31,20,11,28,12,-100,90,78,66,30.17,29.81,4,-27,6,0.01
2014-2-1,25,18,8,22,14,-100,92,88,88,30.18,29.91,5,-13,8,0.00
2014-2-2,22,18,0,20,11,-100,91,80,65,30.32,30.06,3,-12,6,0.00
2014-2-3,22,8,-7,12,2,-100,89,80,63,30.41,30.33,4,-9,6,0.00
2014-2-4,24,14,2,16,9,-1,89,82,70,30.48,30.24,3,0,6,0.00
2014-2-5,21,18,13,18,11,6,92,75,54,30.41,30.12,10,4,16,0.00
2014-2-6,14,12,10,10,7,4,87,82,72,30.41,30.29,5,1,11,0.00
2014-2-7,15,10,7,8,5,3,86,80,70,30.31,30.27,6,2,14,0.00
2014-2-8,18,15,11,15,10,6,92,82,71,30.31,30.17,5,1,7,0.00
2014-2-9,22,16,12,16,12,8,90,83,70,30.22,30.07,4,0,6,0.00
2014-2-10,15,10,4,9,5,1,90,81,67,30.46,30.22,3,0,6,0.00
2014-2-11,16,10,1,8,4,-2,88,78,64,30.55,30.44,5,1,11,0.00
2014-2-12,19,8,-5,12,2,-8,94,76,61,30.45,30.10,5,1,9,0.00
2014-2-13,30,23,17,21,13,6,83,65,37,30.10,29.49,9,2,15,0.00
2014-2-14,26,23,13,24,18,9,90,81,71,29.91,29.48,5,2,9,0.00
2014-2-15,25,14,8,13,8,3,92,77,57,30.10,29.91,6,1,10,0.00
2014-2-16,28,20,11,17,14,8,89,78,56,30.36,29.97,6,1,11,0.01
2014-2-17,19,14,8,16,9,3,91,81,57,30.38,29.73,12,4,19,0.00
2014-2-18,43,27,14,31,22,12,94,81,59,29.98,29.63,11,2,19,0.10
2014-2-19,45,33,23,32,26,21,95,77,43,30.01,29.61,5,1,8,0.02
2014-2-20,43,32,23,42,30,20,97,91,81,30.02,29.28,16,6,24,0.50
2014-2-21,39,30,24,35,24,16,94,80,64,29.70,29.30,13,8,29,0.00
2014-2-22,29,25,21,17,16,14,75,68,58,30.01,29.70,9,3,15,0.00
2014-2-23,23,19,12,14,11,9,89,71,58,30.13,30.01,7,2,15,0.00
2014-2-24,19,16,9,11,9,6,87,75,64,30.23,30.10,4,2,13,0.00
2014-2-25,18,14,9,13,8,4,88,79,63,30.21,30.08,6,1,12,0.00
2014-2-26,14,9,1,11,3,-3,89,77,64,30.15,29.57,11,3,18,0.00
2014-2-27,14,5,-9,11,0,-13,89,79,61,30.27,29.56,7,2,16,0.00
2014-2-28,17,3,-15,10,-6,-19,87,67,45,30.35,30.11,9,2,16,0.00
2014-3-1,20,17,11,18,11,5,96,78,60,30.37,30.07,4,1,8,0.03
2014-3-2,14,8,-4,6,0,-100,84,71,52,30.46,30.34,5,-17,8,0.01
2014-3-3,14,3,-15,2,-8,-100,87,69,50,30.57,30.44,7,-24,7,0.00
2014-3-4,19,14,9,15,9,1,86,80,67,30.43,30.24,5,1,9,0.00
2014-3-5,22,14,8,11,6,3,88,71,45,30.57,30.32,8,2,15,0.00
2014-3-6,27,18,1,11,7,-2,88,64,45,30.57,30.17,10,2,13,0.01
2014-3-7,45,25,7,29,15,-100,88,69,42,30.17,29.89,8,-10,10,0.01
2014-3-8,33,28,16,28,19,12,84,70,56,30.25,29.97,8,2,13,0.00
2014-3-9,36,24,10,31,17,8,92,76,50,30.25,29.81,10,3,18,0.00
2014-3-10,50,39,29,36,33,27,95,78,57,29.81,29.55,7,1,13,0.00
2014-3-11,47,38,30,36,31,26,95,78,56,29.81,29.62,8,1,11,0.00
2014-3-12,36,25,12,27,12,-3,72,57,34,30.12,29.74,13,5,22,0.00
2014-3-13,28,17,2,21,9,-1,87,72,62,30.18,29.90,11,3,16,0.00
2014-3-14,48,34,22,33,26,20,95,76,54,29.90,29.51,10,2,16,0.00
2014-3-17,29,22,5,13,6,-4,92,50,36,30.14,29.92,8,4,12,0.00
2014-3-18,44,32,20,31,23,13,83,68,55,30.01,29.87,9,2,19,0.00
2014-3-19,41,36,32,40,32,29,100,89,74,29.87,29.57,7,2,10,0.14
2014-3-20,36,32,23,31,25,19,94,77,51,30.08,29.83,6,1,9,0.06
2014-3-21,40,28,17,32,21,-100,95,77,51,30.09,29.73,9,-7,14,0.17
2014-3-22,34,30,21,32,23,11,95,77,61,30.32,29.73,6,2,10,0.01
2014-3-23,23,17,13,12,7,-100,78,67,54,30.44,30.32,6,-19,11,0.00
2014-3-24,27,19,10,15,11,7,90,73,53,30.40,30.06,5,1,7,0.00
2014-3-25,26,21,12,23,14,-100,91,78,54,30.22,29.95,6,-10,13,0.04
2014-3-26,30,17,3,18,9,0,90,73,50,30.37,30.11,9,2,9,0.01
2014-3-27,41,35,30,39,28,18,95,78,55,30.10,29.53,5,2,11,0.45
2014-3-28,45,37,32,44,34,27,97,89,79,30.24,29.44,5,2,11,0.68
2014-3-29,42,35,29,29,26,24,87,73,48,30.28,30.16,8,2,15,0.00
2014-3-30,48,34,20,29,24,18,93,69,43,30.28,30.10,7,1,10,0.00
2014-3-31,62,43,27,37,31,25,91,67,36,30.15,29.82,9,2,10,0.00
2014-4-1,53,40,31,43,32,24,87,76,55,30.03,29.66,10,3,13,0.13
2014-4-2,50,38,25,30,26,22,91,64,38,30.23,30.04,4,1,7,0.00
2014-4-3,39,36,33,28,24,20,82,62,52,30.20,29.87,16,8,23,0.01
2014-4-4,41,35,30,40,33,27,97,91,81,29.81,29.40,11,4,19,0.58
2014-4-5,45,34,29,28,24,18,89,68,38,30.20,29.81,6,2,13,0.02
2014-4-6,54,39,24,36,28,21,91,68,42,30.20,30.00,8,1,12,0.00
2014-4-7,56,42,29,32,29,24,93,65,31,30.01,29.58,9,2,13,0.00
2014-4-8,57,44,34,38,33,30,88,67,46,29.90,29.56,6,2,15,0.00
2014-4-9,54,43,28,34,29,24,92,59,36,30.02,29.83,9,2,15,0.00
2014-4-10,58,52,37,43,36,32,83,57,43,29.90,29.64,10,3,17,0.02
2014-4-11,61,46,29,35,28,24,90,58,25,30.04,29.89,8,2,15,0.00
2014-4-12,63,46,33,50,37,28,96,74,35,30.08,29.69,11,3,16,2.31
2014-4-13,63,55,51,58,53,50,96,91,74,29.78,29.50,9,2,15,1.17
2014-4-14,65,43,25,60,39,22,97,87,75,29.94,29.27,12,4,20,0.55
2014-4-15,32,27,23,22,16,8,90,65,38,30.28,29.92,7,2,18,0.08
2014-4-16,47,34,20,27,20,16,91,61,37,30.43,30.27,10,3,19,0.00
2014-4-17,57,45,35,40,32,24,82,59,44,30.32,30.19,10,4,18,0.00
2014-4-18,54,45,37,39,35,25,92,69,41,30.40,30.24,8,2,15,0.00
2014-4-19,59,44,29,36,29,25,87,59,32,30.48,30.27,10,3,18,0.00
2014-4-20,72,56,40,46,37,31,80,52,33,30.31,30.03,11,2,16,0.00
2014-4-21,74,60,52,54,48,41,92,68,41,30.03,29.73,12,1,17,0.03
2014-4-22,55,44,36,54,35,27,95,69,55,30.04,29.70,9,4,19,0.00
2014-4-23,56,43,31,32,27,21,85,57,26,30.17,30.05,7,2,14,0.00
2014-4-24,58,48,39,36,28,23,75,48,28,30.13,29.81,11,4,23,0.00
2014-4-25,59,48,39,44,37,23,90,69,34,29.82,29.66,7,2,13,0.13
2014-4-26,54,44,36,40,34,30,93,69,45,30.12,29.81,10,2,13,0.00
2014-4-27,54,45,39,35,32,29,83,63,46,30.18,30.02,15,8,24,0.00
2014-4-28,56,49,44,36,33,30,63,54,41,30.05,29.74,18,12,32,0.00
2014-4-29,57,49,42,54,45,35,95,86,60,29.74,29.54,14,5,23,0.72
2014-4-30,58,52,43,50,47,41,97,84,65,29.79,29.68,7,1,9,0.04
2014-5-1,45,43,38,41,39,36,94,87,79,29.78,29.69,9,2,15,0.02
2014-5-2,49,46,43,44,43,40,95,90,80,29.76,29.70,6,1,9,0.04
2014-5-3,57,50,43,47,42,36,95,75,48,29.83,29.60,8,2,11,0.08
2014-5-4,54,45,41,40,32,-100,92,66,44,30.11,29.82,8,-22,12,0.00
2014-5-5,58,46,37,41,36,33,92,70,43,30.14,29.97,6,1,9,0.00
2014-5-6,61,50,36,42,37,33,91,63,44,30.11,30.00,11,4,21,0.00
2014-5-7,54,49,41,51,44,35,92,84,60,30.06,29.89,12,5,18,0.81
2014-5-8,83,66,49,66,57,47,92,75,53,29.94,29.76,10,3,14,0.00
2014-5-9,77,66,54,64,58,46,94,77,58,29.77,29.60,16,5,21,0.83
2014-5-10,65,57,46,46,42,34,88,60,34,29.99,29.77,7,2,17,0.00
2014-5-11,80,62,42,60,48,39,93,65,35,30.02,29.89,10,2,17,0.19
2014-5-12,73,64,57,67,62,56,98,93,78,29.95,29.80,7,1,11,1.22
2014-5-13,70,63,53,68,60,49,97,91,86,30.08,29.73,6,1,13,0.09
2014-5-14,61,54,48,52,46,43,93,78,57,30.16,30.01,8,1,11,0.35
2014-5-15,48,42,38,46,40,33,94,90,82,30.05,29.81,9,4,20,0.41
2014-5-16,48,41,34,36,33,31,91,75,55,30.08,30.02,4,1,13,0.00
2014-5-17,56,45,34,41,34,30,95,69,38,30.14,30.06,6,2,12,0.00
2014-5-18,65,54,39,44,38,34,91,59,39,30.21,30.14,11,2,19,0.00
2014-5-19,70,57,41,52,42,38,93,63,32,30.26,30.05,11,2,20,0.17
2014-5-20,74,63,52,63,56,47,93,78,67,30.11,29.82,9,2,13,0.17
2014-5-21,83,69,60,67,58,48,97,74,32,29.88,29.80,5,1,12,0.05
2014-5-22,68,60,52,55,49,46,87,68,49,30.10,29.88,6,2,11,0.00
2014-5-23,72,58,46,51,46,43,93,67,38,30.18,30.10,8,2,15,0.00
2014-5-24,77,62,45,52,47,43,95,63,34,30.24,30.12,3,1,10,0.00
2014-5-25,80,64,48,54,49,46,94,64,31,30.16,30.02,7,1,18,0.00
2014-5-26,79,66,50,67,58,48,94,78,56,30.04,29.89,7,1,13,0.01
2014-5-27,77,69,63,69,65,61,96,87,77,29.92,29.84,5,0,8,0.00
2014-5-28,74,66,59,65,56,51,93,70,55,30.08,29.89,8,2,15,0.00
2014-5-29,79,65,49,59,52,47,94,68,40,30.15,30.06,6,2,11,0.00
2014-5-30,84,68,52,62,56,50,96,69,38,30.21,30.10,5,0,12,0.00
2014-5-31,87,71,56,62,56,52,88,62,35,30.22,30.06,7,1,11,0.00
2014-6-1,87,72,61,61,54,46,85,55,34,30.11,29.87,9,2,15,0.00
2014-6-2,81,74,66,70,66,59,88,75,60,29.91,29.70,14,3,24,0.00
2014-6-3,72,65,58,62,54,-100,96,72,49,29.90,29.73,7,-13,10,0.04
2014-6-4,73,60,53,58,53,48,94,78,44,29.90,29.83,4,0,7,0.01
2014-6-5,77,65,44,51,47,42,93,56,32,29.98,29.87,4,1,8,0.00
2014-6-6,81,63,48,54,50,46,94,66,35,30.01,29.94,5,1,8,0.00
2014-6-7,84,68,50,58,52,48,94,63,31,30.04,29.85,6,1,11,0.00
2014-6-8,76,66,60,59,54,44,85,67,43,30.01,29.82,7,2,14,0.00
2014-6-9,80,66,50,57,50,44,85,59,42,30.05,29.92,7,1,11,0.00
2014-6-10,75,66,56,58,53,47,82,64,46,29.96,29.87,6,2,11,0.00
2014-6-11,72,63,55,68,60,47,96,90,47,29.87,29.68,6,1,11,0.64
2014-6-12,75,66,61,65,62,54,97,87,65,29.76,29.68,7,1,12,0.00
2014-6-13,64,56,50,55,48,45,93,75,53,30.03,29.75,4,1,9,0.00
2014-6-14,76,59,41,53,46,40,96,68,34,30.15,30.02,5,1,9,0.00
2014-6-15,80,68,54,64,55,49,90,64,43,30.07,29.84,13,3,22,0.00
2014-6-16,84,73,62,65,61,57,96,71,40,30.01,29.88,7,1,14,0.00
2014-6-17,80,72,63,71,66,60,95,83,64,29.93,29.70,8,1,17,0.54
2014-6-18,72,68,66,69,66,64,97,94,84,30.05,29.83,7,1,11,1.60
2014-6-19,77,70,62,66,60,48,95,74,58,30.14,30.01,10,4,20,0.00
2014-6-20,64,60,56,60,54,40,95,82,46,30.09,29.96,6,2,13,0.65
2014-6-21,77,67,59,68,62,58,96,85,64,30.01,29.86,6,1,10,0.03
2014-6-22,82,72,64,72,66,63,97,84,64,29.92,29.82,2,0,7,0.00
2014-6-23,76,69,63,70,66,62,97,92,79,29.87,29.80,5,0,9,0.16
2014-6-24,81,72,67,73,68,66,97,88,67,29.86,29.81,2,0,6,0.05
2014-6-25,76,68,65,68,65,64,97,90,75,30.00,29.86,5,1,12,0.28
2014-6-26,78,69,62,68,64,61,97,85,59,30.06,29.98,4,0,7,0.00
2014-6-27,84,72,59,70,64,58,96,78,50,30.07,29.99,7,1,11,0.00
2014-6-28,84,73,65,72,68,64,96,85,64,30.05,29.95,7,1,11,0.03
2014-6-29,80,76,71,72,69,67,93,80,65,29.96,29.83,9,2,18,0.26
2014-6-30,83,76,68,73,71,65,96,85,69,29.87,29.64,8,2,16,0.25
2014-7-1,77,69,63,66,64,62,97,84,64,29.70,29.47,7,2,23,0.22
2014-7-2,66,64,60,63,59,53,95,86,78,29.98,29.68,7,1,11,0.00
2014-7-3,74,64,55,54,50,44,85,63,37,30.17,29.97,5,1,10,0.00
2014-7-4,78,63,48,55,50,44,96,67,33,30.30,30.17,5,1,12,0.00
2014-7-5,77,64,48,59,54,46,95,73,50,30.28,30.03,6,1,15,0.00
2014-7-6,79,68,57,72,63,56,97,85,70,30.03,29.61,8,2,18,0.72
2014-7-7,82,75,67,71,67,61,97,78,50,29.69,29.58,3,1,9,0.34
2014-7-8,74,68,62,65,63,59,96,84,64,29.75,29.50,5,1,16,0.22
2014-7-9,73,64,56,60,55,53,93,75,53,30.03,29.74,3,0,9,0.00
2014-7-10,76,63,50,59,53,49,97,74,42,30.19,30.03,3,0,6,0.00
2014-7-11,78,66,52,64,58,51,96,77,55,30.22,30.09,6,1,9,0.00
2014-7-12,77,69,59,71,65,57,97,88,70,30.12,29.81,6,1,11,0.02
2014-7-13,78,71,64,71,66,63,97,86,69,29.85,29.74,5,0,12,0.41
2014-7-14,78,68,59,67,59,52,99,76,43,29.85,29.74,6,0,15,0.00
2014-7-15,63,59,54,59,55,49,96,85,71,29.92,29.73,4,1,13,0.13
2014-7-16,69,60,53,56,53,49,92,78,58,30.02,29.91,3,0,8,0.00
2014-7-17,74,62,49,58,53,48,97,75,47,30.12,30.01,4,1,10,0.00
2014-7-18,78,63,47,59,54,46,96,75,46,30.21,30.11,6,1,14,0.00
2014-7-19,81,67,53,62,57,52,96,73,40,30.12,29.99,6,0,8,0.00
2014-7-20,81,68,56,63,59,55,96,75,47,30.06,30.00,4,0,9,0.00
2014-7-21,83,71,58,68,63,56,96,79,55,30.09,30.02,5,1,10,0.00
2014-7-22,85,74,62,72,67,60,98,81,63,30.06,29.85,10,2,17,0.13
2014-7-23,72,66,59,68,58,51,95,75,60,30.12,29.92,8,2,13,0.00
2014-7-24,76,63,50,56,52,48,95,70,45,30.17,30.03,5,1,9,0.00
2014-7-25,74,63,52,60,56,50,96,78,53,30.08,29.91,5,1,12,0.00
2014-7-26,78,66,59,68,62,58,96,85,69,29.92,29.75,5,0,7,0.00
2014-7-27,82,70,61,72,64,59,98,82,55,29.79,29.59,5,1,8,0.03
2014-7-28,66,59,54,62,52,49,93,75,54,30.02,29.78,7,2,11,0.02
2014-7-29,75,62,50,60,54,49,95,79,53,30.01,29.94,3,0,6,0.00
2014-7-30,76,64,54,59,54,47,97,73,41,30.00,29.95,3,0,7,0.00
2014-7-31,78,66,52,63,59,50,97,80,58,29.99,29.97,4,0,9,0.01
2014-8-1,81,69,58,67,62,56,97,80,47,30.08,29.98,5,1,5,0.03
2014-8-2,83,70,56,65,61,55,97,75,48,30.13,30.05,3,0,7,0.00
2014-8-3,84,70,56,66,62,55,97,78,50,30.13,30.02,4,0,7,0.00
2014-8-4,84,70,61,72,65,60,97,85,55,30.08,30.00,2,0,7,0.05
2014-8-5,78,70,66,67,65,63,94,85,63,30.05,29.99,6,1,9,0.00
2014-8-6,82,68,56,64,58,52,97,74,39,30.07,30.00,5,1,11,0.00
2014-8-7,84,68,54,65,58,52,96,74,41,30.13,30.03,3,0,6,0.00
2014-8-8,80,68,57,62,58,54,95,73,42,30.15,30.07,7,2,13,0.00
2014-8-9,79,67,55,63,58,53,96,76,48,30.16,30.07,9,2,17,0.00
2014-8-10,83,70,58,66,60,56,96,75,46,30.11,29.96,6,1,14,0.00
2014-8-11,77,71,67,70,66,63,94,86,74,29.98,29.70,3,0,7,0.24
2014-8-12,68,63,56,66,61,54,97,94,90,29.91,29.65,3,0,13,0.29
2014-8-13,76,63,51,60,54,49,98,76,44,30.03,29.90,4,1,8,0.00
2014-8-14,69,58,48,53,48,42,96,72,40,30.10,30.01,5,1,16,0.00
2014-8-15,75,58,43,57,50,42,97,77,46,30.06,29.94,3,0,10,0.00
2014-8-16,76,65,52,69,61,51,98,88,68,29.94,29.84,4,0,10,0.06
2014-8-17,79,69,60,67,62,58,96,79,52,29.99,29.90,5,2,9,0.00
2014-8-18,81,68,60,69,63,58,96,83,62,29.96,29.76,6,1,10,0.00
2014-8-19,78,70,65,72,68,64,98,93,79,29.78,29.66,5,0,8,0.63
2014-8-20,79,70,64,69,66,62,99,86,65,29.92,29.71,3,0,8,0.00
2014-8-21,76,69,60,72,66,60,97,91,74,29.97,29.91,5,1,8,0.35
2014-8-22,81,73,68,74,70,67,98,91,75,29.99,29.89,5,1,10,0.00
2014-8-23,81,72,65,69,66,63,96,82,64,30.03,29.96,7,2,13,0.00
2014-8-24,79,72,67,69,67,65,95,85,67,30.06,30.00,8,2,14,0.00
2014-8-25,79,74,69,75,71,67,96,91,83,30.03,29.95,4,0,9,0.04
2014-8-26,79,71,61,73,68,59,99,90,70,30.07,29.97,2,0,7,0.00
2014-8-27,76,65,56,62,58,55,97,81,55,30.16,30.07,4,0,8,0.00
2014-8-28,74,61,48,60,53,47,97,77,48,30.18,30.07,5,1,10,0.00
2014-8-29,74,66,61,69,60,54,95,82,73,30.08,29.90,5,1,13,0.19
2014-8-30,78,74,70,73,69,66,96,85,74,29.89,29.75,6,2,15,0.15
2014-8-31,81,71,66,70,67,64,98,88,62,29.92,29.84,3,0,15,0.00
2014-9-1,79,73,64,73,69,63,99,89,76,29.87,29.67,8,2,18,0.65
2014-9-2,80,69,61,67,61,55,98,78,45,29.92,29.76,2,0,6,0.00
2014-9-3,80,67,58,68,60,57,99,81,49,30.00,29.92,5,0,11,0.00
2014-9-4,82,71,60,72,66,59,98,86,65,30.01,29.87,8,1,15,0.09
2014-9-5,79,73,64,75,70,61,98,90,74,29.99,29.85,13,1,19,0.37
2014-9-6,74,65,55,61,56,50,94,76,45,30.14,29.98,5,1,9,0.00
2014-9-7,77,62,49,61,54,48,97,78,45,30.20,30.12,4,0,8,0.00
2014-9-8,76,63,51,57,53,50,96,74,42,30.17,30.01,7,1,12,0.00
2014-9-9,72,60,55,61,56,54,96,90,66,30.03,29.99,2,0,6,0.00
2014-9-15,57,52,44,56,51,43,97,96,95,30.15,30.08,0,0,1,0.16
2014-9-16,64,51,43,55,46,42,99,84,51,30.18,30.08,4,0,7,0.00
2014-9-17,66,51,38,54,46,37,97,83,54,30.08,29.97,4,0,11,0.00
2014-9-18,64,53,45,55,50,43,97,89,73,30.20,30.03,6,1,8,0.00
2014-9-19,69,56,44,56,50,42,97,82,59,30.24,29.93,8,2,14,0.00
2014-9-20,72,65,57,66,60,50,96,84,66,29.93,29.68,10,2,18,0.38
2014-9-21,62,56,47,62,53,40,98,90,76,30.10,29.57,6,2,15,0.50
2014-9-22,63,51,41,51,45,39,96,80,59,30.25,30.10,5,1,12,0.00
2014-9-23,73,56,43,59,51,42,97,84,56,30.34,30.24,5,0,6,0.00
2014-9-24,74,58,46,60,52,45,97,82,46,30.40,30.29,5,1,11,0.00
2014-9-25,77,60,50,60,54,48,97,82,45,30.31,30.22,4,0,8,0.00
2014-9-26,77,61,49,60,54,48,97,81,45,30.30,30.23,5,0,10,0.00
2014-9-27,77,61,48,62,54,47,97,81,45,30.30,30.16,4,0,5,0.00
2014-9-28,78,62,50,62,55,49,97,82,48,30.19,30.05,3,0,4,0.00
2014-9-29,78,59,48,64,54,47,97,86,59,30.05,29.88,4,1,9,0.21
2014-9-30,54,51,47,50,47,45,93,88,80,30.04,29.97,6,1,7,0.00
2014-10-1,62,55,51,54,51,49,95,87,70,30.06,29.95,6,1,9,0.00
2014-10-2,68,60,50,64,58,49,97,92,84,29.98,29.68,5,0,8,0.10
2014-10-3,67,58,46,65,55,42,97,91,82,29.67,29.28,7,1,15,0.85
2014-10-4,46,43,40,42,40,37,95,89,76,29.66,29.56,4,1,12,0.11
2014-10-5,51,46,41,43,40,36,97,81,57,29.67,29.61,6,1,10,0.01
2014-10-6,56,48,42,52,46,40,97,92,82,29.62,29.50,5,0,8,0.29
2014-10-7,60,50,39,53,46,38,98,86,66,29.73,29.60,9,1,18,0.00
2014-10-8,57,48,39,47,39,36,96,75,46,29.98,29.73,6,1,12,0.00
2014-10-9,56,44,33,42,37,32,97,78,50,30.14,29.98,4,1,7,0.00
2014-10-10,56,43,31,42,35,30,96,77,47,30.22,30.13,4,0,8,0.00
2014-10-11,57,42,30,42,36,29,96,81,49,30.27,30.18,6,0,11,0.01
2014-10-12,60,45,30,45,37,29,95,75,46,30.20,29.95,7,2,16,0.00
2014-10-13,67,58,50,65,55,41,98,90,61,29.95,29.64,4,1,9,0.16
2014-10-14,68,64,59,64,61,58,97,92,86,29.63,29.49,8,1,9,0.47
2014-10-15,64,58,55,58,56,54,97,92,74,29.79,29.59,5,0,8,0.10
2014-10-16,58,55,53,56,54,51,97,95,89,29.79,29.64,2,0,3,0.06
2014-10-17,60,53,46,54,50,43,97,91,75,29.74,29.46,6,1,14,0.07
2014-10-18,47,43,34,43,39,31,93,85,67,30.17,29.74,5,2,11,0.02
2014-10-19,50,40,29,42,36,28,97,84,67,30.20,29.91,8,2,14,0.00
2014-10-20,58,51,44,51,47,42,97,87,72,29.95,29.77,5,1,7,0.02
2014-10-21,52,46,37,45,40,34,92,81,56,30.29,29.95,7,2,12,0.00
2014-10-22,53,39,28,38,33,26,95,80,48,30.42,30.29,7,1,8,0.01
2014-10-23,58,42,29,46,37,28,98,86,55,30.31,30.08,6,0,8,0.00
2014-10-24,56,51,46,52,48,43,94,89,83,30.08,29.92,3,0,7,0.00
2014-10-25,66,56,45,55,43,34,98,68,34,29.92,29.78,7,2,16,0.00
2014-10-26,59,46,34,40,36,32,95,71,40,29.97,29.86,6,1,9,0.00
2014-10-27,74,56,33,60,46,30,94,73,55,29.94,29.60,6,1,10,0.04
2014-10-28,70,58,49,58,47,36,87,66,49,29.85,29.57,10,3,16,0.00
2014-10-29,49,44,36,40,38,34,92,79,67,30.11,29.83,6,1,16,0.03
2014-10-30,50,43,36,41,38,34,94,83,64,30.12,29.98,4,0,8,0.00
2014-10-31,44,37,32,41,32,22,94,83,66,30.33,29.92,15,4,24,0.18
2014-11-1,42,31,24,25,21,17,92,66,43,30.46,30.33,8,2,12,0.00
2014-11-2,50,34,21,35,27,19,93,78,51,30.45,30.22,8,1,13,0.00
2014-11-3,60,49,43,45,36,26,76,59,50,30.22,29.92,8,2,12,0.00
2014-11-4,60,49,38,52,44,36,94,82,48,29.95,29.78,7,2,19,0.14
2014-11-5,49,44,34,40,35,31,90,72,54,30.10,29.92,6,1,9,0.06
2014-11-6,43,41,36,42,38,29,95,90,74,30.14,29.72,7,2,20,0.26
2014-11-7,43,37,31,35,32,29,94,80,59,30.15,29.88,4,1,8,0.02
2014-11-8,42,39,31,39,34,26,95,83,67,29.91,29.66,4,1,9,0.13
2014-11-9,44,37,29,38,34,26,95,87,73,29.90,29.73,9,1,16,0.09
2014-11-10,56,44,37,43,38,36,95,80,56,29.90,29.62,8,2,12,0.03
2014-11-11,54,43,32,48,39,26,93,88,75,29.96,29.55,8,1,16,0.23
2014-11-12,32,30,28,26,23,21,82,74,65,30.23,29.97,4,1,14,0.00
2014-11-13,32,27,23,24,22,20,90,82,68,30.23,30.18,6,1,10,0.02
2014-11-14,32,28,22,25,23,20,94,82,65,30.34,30.21,5,1,6,0.02
2014-11-15,30,28,26,24,21,19,91,74,66,30.35,30.21,6,1,11,0.00
2014-11-16,30,28,26,28,26,24,94,93,91,30.21,29.85,5,1,6,0.00
2014-11-17,29,21,15,27,18,12,96,87,80,29.85,29.70,3,1,6,0.00
2014-11-18,22,18,14,18,15,12,91,88,81,30.06,29.77,5,1,9,0.00
2014-11-19,25,20,16,23,18,13,93,88,82,30.06,29.68,7,2,13,0.00
2014-11-20,22,20,12,19,15,9,91,84,71,30.24,29.86,5,1,8,0.00
2014-11-21,28,20,8,19,14,6,100,78,65,30.48,30.24,9,2,13,0.05
2014-11-22,44,36,24,43,32,15,97,88,65,30.25,29.86,5,1,8,0.37
2014-11-23,50,46,38,49,44,37,98,95,89,29.88,29.14,5,0,7,0.67
2014-11-24,49,42,31,48,41,30,98,96,91,29.62,28.99,11,2,19,0.67
2014-11-25,31,29,27,30,27,24,96,93,89,30.20,29.63,4,1,10,0.03
2014-11-26,30,28,28,26,25,24,93,89,80,30.21,30.15,3,0,6,0.00
2014-11-27,29,25,19,26,21,13,94,84,74,30.39,30.17,6,1,14,0.00
2014-11-28,27,22,19,22,18,14,88,83,76,30.37,30.01,8,2,13,0.00
2014-11-29,50,37,27,47,32,23,90,83,72,30.01,29.61,9,2,13,0.02
2014-11-30,51,43,31,49,40,25,95,90,79,30.20,29.61,7,2,16,0.01
2014-12-1,31,20,12,25,12,6,80,70,61,30.72,30.21,7,2,12,0.00
2014-12-2,32,22,11,30,17,6,94,80,65,30.67,30.01,7,3,12,0.00
2014-12-3,33,30,24,32,24,15,95,78,62,30.34,29.99,6,1,11,0.05
2014-12-4,30,23,14,18,15,12,91,71,55,30.50,30.34,5,1,7,0.00
2014-12-5,36,32,28,30,25,16,85,77,63,30.37,30.20,3,0,6,0.00
2014-12-6,39,34,24,32,26,19,90,73,46,30.70,30.26,10,2,19,0.00
2014-12-7,35,27,18,25,20,15,90,75,52,30.73,30.38,7,2,11,0.00
2014-12-8,36,32,30,32,28,22,96,84,68,30.38,30.01,6,1,10,0.13
2014-12-9,37,34,31,35,31,26,96,89,77,30.37,30.05,7,1,11,0.21
2014-12-10,35,29,22,26,22,18,85,76,62,30.40,30.25,6,2,11,0.00
2014-12-11,38,27,19,29,23,17,94,85,59,30.24,30.16,4,1,9,0.00
2014-12-12,36,32,24,34,30,22,95,93,91,30.27,30.17,2,0,4,0.00
2014-12-13,42,38,35,41,37,34,97,95,93,30.22,30.05,3,0,7,0.02
2014-12-14,47,44,41,47,43,40,98,98,97,30.08,30.02,2,0,5,0.04
2014-12-15,48,46,45,47,45,42,98,96,89,30.02,29.74,4,1,6,0.01
2014-12-16,45,42,32,44,40,30,97,95,90,29.96,29.66,3,0,7,0.07
2014-12-17,32,28,27,30,24,20,93,83,75,30.21,29.96,4,2,12,0.00
2014-12-18,31,30,27,29,26,21,93,85,78,30.26,30.20,7,0,7,0.00
2014-12-19,33,25,19,21,20,16,92,80,58,30.35,30.24,4,0,7,0.00
2014-12-20,31,24,16,28,21,14,92,89,79,30.34,30.28,3,0,4,0.00
2014-12-21,34,32,30,29,28,26,92,85,78,30.29,30.12,6,1,11,0.00
2014-12-22,36,32,28,33,28,24,94,85,74,30.12,29.81,9,4,15,0.27
2014-12-23,48,39,32,46,36,31,97,92,74,29.80,29.68,9,3,14,0.31
2014-12-24,39,36,33,39,35,32,97,96,95,29.79,29.40,2,0,4,0.51
2014-12-25,36,36,34,35,32,30,96,87,80,30.05,29.50,6,2,14,0.02
2014-12-26,42,36,30,38,33,29,100,91,82,30.07,30.01,5,0,8,0.00
2014-12-27,47,40,35,46,38,32,98,92,83,30.05,29.84,10,3,18,0.06
2014-12-28,35,30,27,33,24,20,93,79,68,30.25,30.01,4,1,11,0.00
2014-12-29,28,23,17,20,15,9,79,69,58,30.52,30.25,6,1,13,0.00
2014-12-30,18,17,14,12,9,5,80,70,59,30.62,30.52,4,1,8,0.00
2014-12-31,22,15,11,13,9,5,85,75,66,30.54,30.06,7,3,17,0.00
2015-1-1,29,25,22,25,20,14,92,81,70,30.09,29.88,6,3,14,0.00
2015-1-2,31,24,13,21,17,10,92,76,50,30.33,30.09,4,0,7,0.03